Time;durP1;ratioP1;P1;durP2;ratioP2;P2;SDS_P1;SDS_P2;PMS_P1;PMS_P2;Temp;Humidity;BMP_temperature;BMP_pressure;BME280_temperature;BME280_humidity;BME280_pressure;Samples;Min_cycle;Max_cycle;Signal;HPM_P1;HPM_P2
2023/07/14 00:01:21;;;;;;;0.70;0.70;;;;;;;;;;5053993;28;20033;-61
2023/07/14 00:03:49;;;;;;;1.38;0.80;;;;;;;;;;5053816;28;20451;-61
2023/07/14 00:06:17;;;;;;;0.73;0.70;;;;;;;;;;5053940;28;20024;-61
2023/07/14 00:08:45;;;;;;;0.52;0.52;;;;;;;;;;5053726;28;20043;-61
2023/07/14 00:11:16;;;;;;;0.82;0.80;;;;;;;;;;5053825;28;20028;-61
2023/07/14 00:13:43;;;;;;;0.75;0.60;;;;;;;;;;5053752;28;20108;-62
2023/07/14 00:16:15;;;;;;;0.88;0.70;;;;;;;;;;5053806;28;20037;-61
2023/07/14 00:18:42;;;;;;;0.98;0.60;;;;;;;;;;5053604;28;20032;-61
2023/07/14 00:21:19;;;;;;;0.90;0.80;;;;;;;;;;5053687;28;20032;-61
2023/07/14 00:23:46;;;;;;;0.63;0.63;;;;;;;;;;5053544;28;20135;-61
2023/07/14 00:26:18;;;;;;;2.28;0.90;;;;;;;;;;5053570;28;20498;-61
2023/07/14 00:28:48;;;;;;;1.35;1.00;;;;;;;;;;5053250;28;20033;-61
2023/07/14 00:31:16;;;;;;;1.00;0.77;;;;;;;;;;5053286;28;20025;-61
2023/07/14 00:33:49;;;;;;;1.83;0.95;;;;;;;;;;5053301;28;20033;-61
2023/07/14 00:36:17;;;;;;;1.00;0.70;;;;;;;;;;5053219;28;20040;-61
2023/07/14 00:38:44;;;;;;;1.08;0.82;;;;;;;;;;5035437;28;20705;-61
2023/07/14 00:41:19;;;;;;;1.52;1.23;;;;;;;;;;5053082;28;20049;-61
2023/07/14 00:43:46;;;;;;;1.73;0.70;;;;;;;;;;5053217;28;20073;-61
2023/07/14 00:46:28;;;;;;;1.60;0.85;;;;;;;;;;5053139;28;20066;-61
2023/07/14 00:48:57;;;;;;;1.10;0.90;;;;;;;;;;5052940;28;20041;-61
2023/07/14 00:51:24;;;;;;;1.00;0.90;;;;;;;;;;5053052;28;20072;-61
2023/07/14 00:53:52;;;;;;;1.13;1.00;;;;;;;;;;5052989;28;20033;-61
2023/07/14 00:56:27;;;;;;;1.08;0.98;;;;;;;;;;5052755;28;20079;-61
2023/07/14 00:58:55;;;;;;;1.25;1.00;;;;;;;;;;5052612;28;20029;-61
2023/07/14 01:01:22;;;;;;;0.98;0.90;;;;;;;;;;5052910;28;20525;-61
2023/07/14 01:03:51;;;;;;;1.20;0.88;;;;;;;;;;5052704;28;20044;-61
2023/07/14 01:06:24;;;;;;;1.45;1.10;;;;;;;;;;5053006;28;20098;-61
2023/07/14 01:09:08;;;;;;;1.60;1.20;;;;;;;;;;5052550;28;20037;-61
2023/07/14 01:11:41;;;;;;;1.52;1.00;;;;;;;;;;5052735;28;20506;-61
2023/07/14 01:14:11;;;;;;;1.85;1.20;;;;;;;;;;5052621;28;20051;-61
2023/07/14 01:16:39;;;;;;;1.42;1.10;;;;;;;;;;5052558;28;20545;-61
2023/07/14 01:19:10;;;;;;;1.92;1.25;;;;;;;;;;5052444;28;20439;-61
2023/07/14 01:21:38;;;;;;;1.63;1.30;;;;;;;;;;5052889;28;20103;-61
2023/07/14 01:24:12;;;;;;;2.42;1.20;;;;;;;;;;5052473;28;20086;-61
2023/07/14 01:26:51;;;;;;;1.75;1.27;;;;;;;;;;5052224;28;20043;-61
2023/07/14 01:29:19;;;;;;;1.80;1.40;;;;;;;;;;5034189;28;20095;-61
2023/07/14 01:31:50;;;;;;;1.67;1.30;;;;;;;;;;5052269;28;20052;-61
2023/07/14 01:34:17;;;;;;;1.45;1.20;;;;;;;;;;5052254;28;20727;-61
2023/07/14 01:36:45;;;;;;;3.15;1.42;;;;;;;;;;5052242;28;20020;-61
2023/07/14 01:39:12;;;;;;;1.52;1.30;;;;;;;;;;5052075;28;20036;-61
2023/07/14 01:41:39;;;;;;;1.58;1.48;;;;;;;;;;5052026;28;20048;-61
2023/07/14 01:44:07;;;;;;;2.15;1.20;;;;;;;;;;5051622;28;20068;-61
2023/07/14 01:46:35;;;;;;;1.73;1.42;;;;;;;;;;5046015;28;20048;-61
2023/07/14 01:49:17;;;;;;;1.50;1.20;;;;;;;;;;5051869;28;20123;-61
2023/07/14 01:51:45;;;;;;;2.03;1.40;;;;;;;;;;5051975;28;20037;-61
2023/07/14 01:54:22;;;;;;;1.67;1.30;;;;;;;;;;5051750;28;20043;-61
2023/07/14 01:56:49;;;;;;;2.10;1.70;;;;;;;;;;5051830;28;20075;-61
2023/07/14 01:59:18;;;;;;;2.75;1.58;;;;;;;;;;5051734;28;20052;-61
2023/07/14 02:01:45;;;;;;;2.53;1.50;;;;;;;;;;5051825;28;20040;-61
2023/07/14 02:04:20;;;;;;;2.00;1.80;;;;;;;;;;5051826;28;20418;-61
2023/07/14 02:06:48;;;;;;;2.00;1.50;;;;;;;;;;5051739;28;20107;-61
2023/07/14 02:09:19;;;;;;;2.70;1.85;;;;;;;;;;5051577;28;20453;-61
2023/07/14 02:11:53;;;;;;;2.13;1.67;;;;;;;;;;5051708;28;20038;-61
2023/07/14 02:14:21;;;;;;;2.50;1.65;;;;;;;;;;5051682;28;20287;-61
2023/07/14 02:16:50;;;;;;;2.47;1.42;;;;;;;;;;5051592;28;20086;-61
2023/07/14 02:19:19;;;;;;;2.15;1.65;;;;;;;;;;5051823;28;20444;-61
2023/07/14 02:21:46;;;;;;;2.75;1.63;;;;;;;;;;5051567;28;20024;-62
2023/07/14 02:24:18;;;;;;;2.78;1.98;;;;;;;;;;5051599;28;20037;-61
2023/07/14 02:26:46;;;;;;;2.08;1.65;;;;;;;;;;5033549;28;20538;-61
2023/07/14 02:29:13;;;;;;;1.90;1.58;;;;;;;;;;5051342;28;20170;-61
2023/07/14 02:31:44;;;;;;;2.72;1.73;;;;;;;;;;5051482;28;20033;-61
2023/07/14 02:34:12;;;;;;;2.00;1.75;;;;;;;;;;5051508;28;20104;-61
2023/07/14 02:36:39;;;;;;;2.45;1.90;;;;;;;;;;5051339;28;20032;-61
2023/07/14 02:39:07;;;;;;;2.45;1.67;;;;;;;;;;5051289;28;20449;-61
2023/07/14 02:41:38;;;;;;;2.10;1.90;;;;;;;;;;5051256;28;20071;-61
2023/07/14 02:44:07;;;;;;;2.33;2.13;;;;;;;;;;5051187;28;20566;-61
2023/07/14 02:46:37;;;;;;;3.28;2.00;;;;;;;;;;5051322;28;20025;-61
2023/07/14 02:49:04;;;;;;;2.05;1.85;;;;;;;;;;5050957;28;20037;-61
2023/07/14 02:51:31;;;;;;;3.03;2.10;;;;;;;;;;5051293;28;20552;-61
2023/07/14 02:53:58;;;;;;;2.13;1.83;;;;;;;;;;5051271;28;20045;-61
2023/07/14 02:56:25;;;;;;;3.90;2.03;;;;;;;;;;5052565;28;20364;-61
2023/07/14 02:58:52;;;;;;;2.28;1.95;;;;;;;;;;5055127;28;20068;-62
2023/07/14 03:01:20;;;;;;;2.85;2.00;;;;;;;;;;5055181;28;20029;-61
2023/07/14 03:03:48;;;;;;;1.95;1.77;;;;;;;;;;5055114;28;20025;-61
2023/07/14 03:06:16;;;;;;;2.60;1.90;;;;;;;;;;5055095;28;20025;-61
2023/07/14 03:08:43;;;;;;;2.85;2.00;;;;;;;;;;5054832;28;20086;-61
2023/07/14 03:11:11;;;;;;;2.55;1.98;;;;;;;;;;5055008;28;20482;-61
2023/07/14 03:13:38;;;;;;;2.35;2.00;;;;;;;;;;5054938;28;20024;-61
2023/07/14 03:16:05;;;;;;;2.58;1.88;;;;;;;;;;5036869;28;20375;-61
2023/07/14 03:18:32;;;;;;;2.95;2.40;;;;;;;;;;5054749;28;20541;-61
2023/07/14 03:21:00;;;;;;;2.15;1.80;;;;;;;;;;5054834;28;20025;-61
2023/07/14 03:23:27;;;;;;;2.95;2.20;;;;;;;;;;5054664;28;20039;-61
2023/07/14 03:25:55;;;;;;;2.75;1.95;;;;;;;;;;5054705;28;20037;-61
2023/07/14 03:28:23;;;;;;;2.67;2.30;;;;;;;;;;5054527;28;20466;-61
2023/07/14 03:30:50;;;;;;;3.35;2.05;;;;;;;;;;5054436;28;20040;-61
2023/07/14 03:33:17;;;;;;;2.20;1.98;;;;;;;;;;5054578;28;20025;-61
2023/07/14 03:35:44;;;;;;;2.55;1.98;;;;;;;;;;5054321;28;20433;-61
2023/07/14 03:38:11;;;;;;;2.53;2.00;;;;;;;;;;5054359;28;20039;-61
2023/07/14 03:40:38;;;;;;;3.15;2.08;;;;;;;;;;5054311;28;20056;-61
2023/07/14 03:43:05;;;;;;;2.85;2.10;;;;;;;;;;5054355;28;20368;-61
2023/07/14 03:45:36;;;;;;;2.80;2.05;;;;;;;;;;5054346;28;20109;-61
2023/07/14 03:48:06;;;;;;;2.80;2.10;;;;;;;;;;5053982;28;20556;-61
2023/07/14 03:50:35;;;;;;;2.40;2.20;;;;;;;;;;5054268;28;20059;-61
2023/07/14 03:53:02;;;;;;;2.10;1.90;;;;;;;;;;5054269;28;20041;-61
2023/07/14 03:55:29;;;;;;;2.78;2.10;;;;;;;;;;5054224;28;20031;-61
2023/07/14 03:57:56;;;;;;;2.58;2.17;;;;;;;;;;5053965;28;20078;-61
2023/07/14 04:00:23;;;;;;;2.60;2.08;;;;;;;;;;5054074;28;20387;-61
2023/07/14 04:02:50;;;;;;;2.30;1.95;;;;;;;;;;5035999;28;20453;-61
2023/07/14 04:05:17;;;;;;;2.80;2.33;;;;;;;;;;5053998;28;20029;-61
2023/07/14 04:07:44;;;;;;;2.67;2.13;;;;;;;;;;5053655;28;20029;-61
2023/07/14 04:10:12;;;;;;;2.40;2.00;;;;;;;;;;5053901;28;20107;-61
2023/07/14 04:12:39;;;;;;;1.98;1.77;;;;;;;;;;5053846;28;20020;-61
2023/07/14 04:15:06;;;;;;;2.60;2.00;;;;;;;;;;5053784;28;20021;-61
2023/07/14 04:17:33;;;;;;;2.13;1.88;;;;;;;;;;5035907;28;20036;-61
2023/07/14 04:20:00;;;;;;;2.40;1.75;;;;;;;;;;5053624;28;20074;-61
2023/07/14 04:22:27;;;;;;;2.45;1.80;;;;;;;;;;5053485;28;20020;-61
2023/07/14 04:24:54;;;;;;;2.45;2.03;;;;;;;;;;5053604;28;20021;-61
2023/07/14 04:27:21;;;;;;;2.53;2.00;;;;;;;;;;5053531;28;20025;-61
2023/07/14 04:29:48;;;;;;;2.50;2.00;;;;;;;;;;5053471;28;20029;-61
2023/07/14 04:32:15;;;;;;;2.50;2.03;;;;;;;;;;5053466;28;20029;-61
2023/07/14 04:34:42;;;;;;;3.88;2.28;;;;;;;;;;5053376;28;20045;-61
2023/07/14 04:37:09;;;;;;;2.10;1.90;;;;;;;;;;5053581;28;20059;-61
2023/07/14 04:39:36;;;;;;;2.00;1.80;;;;;;;;;;5053165;28;20058;-61
2023/07/14 04:42:04;;;;;;;2.65;2.10;;;;;;;;;;5053209;28;20017;-61
2023/07/14 04:44:31;;;;;;;2.08;1.88;;;;;;;;;;5053201;28;20498;-61
2023/07/14 04:46:58;;;;;;;2.65;2.35;;;;;;;;;;5053220;28;20047;-61
2023/07/14 04:49:25;;;;;;;2.50;1.98;;;;;;;;;;5052920;28;20403;-61
2023/07/14 04:51:52;;;;;;;2.03;1.83;;;;;;;;;;5053126;28;20096;-61
2023/07/14 04:54:23;;;;;;;2.10;1.77;;;;;;;;;;5053005;28;20463;-61
2023/07/14 04:56:51;;;;;;;2.50;2.00;;;;;;;;;;5053046;28;20039;-61
2023/07/14 04:59:18;;;;;;;2.10;1.83;;;;;;;;;;5052899;28;20037;-61
2023/07/14 05:01:45;;;;;;;2.97;2.13;;;;;;;;;;5052922;28;20029;-61
2023/07/14 05:04:12;;;;;;;2.10;1.90;;;;;;;;;;5052901;28;20110;-62
2023/07/14 05:06:39;;;;;;;2.60;1.92;;;;;;;;;;5052673;28;20382;-61
2023/07/14 05:09:07;;;;;;;2.13;1.70;;;;;;;;;;5052686;28;20040;-61
2023/07/14 05:11:34;;;;;;;1.98;1.77;;;;;;;;;;5052596;28;20033;-61
2023/07/14 05:14:04;;;;;;;1.77;1.60;;;;;;;;;;5052741;28;20025;-61
2023/07/14 05:16:31;;;;;;;2.00;1.70;;;;;;;;;;5052665;28;20025;-61
2023/07/14 05:18:58;;;;;;;1.80;1.58;;;;;;;;;;5051686;28;20499;-61
2023/07/14 05:21:25;;;;;;;3.33;2.00;;;;;;;;;;5052455;28;20471;-61
2023/07/14 05:23:52;;;;;;;2.15;1.60;;;;;;;;;;5052531;28;20040;-61
2023/07/14 05:26:19;;;;;;;2.10;1.90;;;;;;;;;;5052490;28;20438;-61
2023/07/14 05:28:46;;;;;;;1.95;1.75;;;;;;;;;;5052043;28;20489;-61
2023/07/14 05:31:16;;;;;;;2.13;1.75;;;;;;;;;;5052352;28;20498;-61
2023/07/14 05:33:46;;;;;;;2.08;1.70;;;;;;;;;;5052308;28;20033;-61
2023/07/14 05:36:13;;;;;;;2.13;1.50;;;;;;;;;;5052243;28;20067;-61
2023/07/14 05:38:40;;;;;;;1.70;1.40;;;;;;;;;;5052033;28;20045;-61
2023/07/14 05:41:08;;;;;;;1.98;1.77;;;;;;;;;;5051970;28;20526;-61
2023/07/14 05:43:35;;;;;;;2.25;1.73;;;;;;;;;;5052196;28;20032;-61
2023/07/14 05:46:03;;;;;;;2.00;1.80;;;;;;;;;;5052156;28;20112;-61
2023/07/14 05:48:30;;;;;;;1.98;1.77;;;;;;;;;;5052063;28;20120;-61
2023/07/14 05:50:58;;;;;;;2.10;1.88;;;;;;;;;;5052008;28;20037;-61
2023/07/14 05:53:26;;;;;;;1.80;1.60;;;;;;;;;;5051836;28;20037;-61
2023/07/14 05:55:55;;;;;;;1.70;1.55;;;;;;;;;;5051749;28;20406;-61
2023/07/14 05:58:22;;;;;;;2.17;1.40;;;;;;;;;;5033745;28;20048;-62
2023/07/14 06:00:49;;;;;;;1.50;1.40;;;;;;;;;;5050400;28;20554;-62
2023/07/14 06:03:17;;;;;;;1.77;1.50;;;;;;;;;;5051319;28;20053;-61
2023/07/14 06:05:44;;;;;;;2.45;1.60;;;;;;;;;;5051828;28;20040;-61
2023/07/14 06:08:11;;;;;;;2.03;1.45;;;;;;;;;;5051698;28;20502;-61
2023/07/14 06:10:38;;;;;;;1.70;1.40;;;;;;;;;;5051756;28;20043;-61
2023/07/14 06:13:06;;;;;;;1.48;1.15;;;;;;;;;;5051681;28;20025;-61
2023/07/14 06:15:33;;;;;;;1.70;1.60;;;;;;;;;;5033672;28;20025;-61
2023/07/14 06:17:59;;;;;;;1.60;1.50;;;;;;;;;;5051600;28;20032;-61
2023/07/14 06:20:26;;;;;;;1.73;1.40;;;;;;;;;;5051863;28;20021;-61
2023/07/14 06:22:53;;;;;;;1.60;1.50;;;;;;;;;;5033536;28;20448;-61
2023/07/14 06:25:20;;;;;;;1.35;1.08;;;;;;;;;;5051456;28;20529;-61
2023/07/14 06:27:47;;;;;;;1.40;1.30;;;;;;;;;;5051351;28;20044;-61
2023/07/14 06:30:14;;;;;;;1.90;1.50;;;;;;;;;;5053485;28;20033;-61
2023/07/14 06:32:41;;;;;;;1.70;1.38;;;;;;;;;;5185487;22;20048;-46
2023/07/14 06:35:10;;;;;;;1.42;1.30;;;;;;;;;;5058173;28;20028;-47
2023/07/14 06:37:37;;;;;;;1.50;1.23;;;;;;;;;;5057978;28;20138;-46
2023/07/14 06:40:05;;;;;;;1.52;1.40;;;;;;;;;;5058116;28;20024;-46
2023/07/14 06:42:32;;;;;;;2.08;1.40;;;;;;;;;;5058064;28;20024;-47
2023/07/14 06:44:59;;;;;;;2.20;1.60;;;;;;;;;;5058048;28;20029;-46
2023/07/14 06:47:26;;;;;;;2.05;1.40;;;;;;;;;;5058040;28;20108;-46
2023/07/14 06:49:53;;;;;;;1.40;1.30;;;;;;;;;;5057806;28;20390;-46
2023/07/14 06:52:20;;;;;;;1.52;1.40;;;;;;;;;;5057898;28;20529;-46
2023/07/14 06:54:47;;;;;;;1.40;1.30;;;;;;;;;;5058034;28;20025;-46
2023/07/14 06:57:14;;;;;;;1.60;1.30;;;;;;;;;;5057992;28;20513;-46
2023/07/14 06:59:41;;;;;;;1.92;1.38;;;;;;;;;;5057954;28;20028;-46
2023/07/14 07:02:11;;;;;;;1.45;1.13;;;;;;;;;;5057890;28;20021;-46
2023/07/14 07:04:39;;;;;;;1.48;1.38;;;;;;;;;;5057757;28;20061;-45
2023/07/14 07:07:05;;;;;;;1.42;1.20;;;;;;;;;;5057927;28;20052;-43
2023/07/14 07:09:32;;;;;;;1.20;1.10;;;;;;;;;;5057763;28;20025;-44
2023/07/14 07:12:00;;;;;;;1.50;1.30;;;;;;;;;;5057770;28;20024;-44
2023/07/14 07:14:27;;;;;;;1.13;1.02;;;;;;;;;;5057790;28;20024;-44
2023/07/14 07:16:54;;;;;;;1.80;1.40;;;;;;;;;;5057816;28;20017;-44
2023/07/14 07:19:20;;;;;;;1.50;1.20;;;;;;;;;;5057737;28;20025;-44
2023/07/14 07:21:47;;;;;;;1.30;1.10;;;;;;;;;;5057757;28;20100;-44
2023/07/14 07:24:14;;;;;;;1.55;1.25;;;;;;;;;;5057732;28;20059;-44
2023/07/14 07:26:41;;;;;;;1.38;1.17;;;;;;;;;;5057721;28;20024;-46
2023/07/14 07:29:08;;;;;;;1.73;1.30;;;;;;;;;;5057615;28;20075;-45
2023/07/14 07:31:35;;;;;;;1.38;1.27;;;;;;;;;;5057574;28;20137;-45
2023/07/14 07:34:03;;;;;;;1.42;1.10;;;;;;;;;;5057342;28;20052;-47
2023/07/14 07:36:31;;;;;;;1.02;0.93;;;;;;;;;;5057574;28;20482;-45
2023/07/14 07:38:58;;;;;;;1.30;1.17;;;;;;;;;;5057693;28;20044;-46
2023/07/14 07:41:26;;;;;;;1.50;1.25;;;;;;;;;;5056493;28;20493;-46
2023/07/14 07:43:53;;;;;;;1.10;1.00;;;;;;;;;;5054113;28;20025;-45
2023/07/14 07:46:23;;;;;;;1.13;0.98;;;;;;;;;;5054367;28;20036;-45
2023/07/14 07:48:50;;;;;;;1.10;1.00;;;;;;;;;;5054239;28;20036;-45
2023/07/14 07:51:18;;;;;;;1.20;1.00;;;;;;;;;;5054199;28;20033;-45
2023/07/14 07:53:45;;;;;;;1.15;1.05;;;;;;;;;;5054223;28;20021;-46
2023/07/14 07:56:12;;;;;;;1.10;1.00;;;;;;;;;;5054032;28;20061;-45
2023/07/14 07:58:39;;;;;;;1.30;1.20;;;;;;;;;;5054165;28;20063;-45
2023/07/14 08:01:06;;;;;;;1.17;1.08;;;;;;;;;;5054028;28;20029;-45
2023/07/14 08:03:34;;;;;;;1.10;0.90;;;;;;;;;;5048119;28;20045;-45
2023/07/14 08:06:02;;;;;;;1.45;1.10;;;;;;;;;;5054001;28;20055;-45
2023/07/14 08:08:29;;;;;;;1.10;0.98;;;;;;;;;;5053937;28;20087;-46
2023/07/14 08:10:56;;;;;;;1.55;1.20;;;;;;;;;;5030207;28;20045;-46
2023/07/14 08:13:25;;;;;;;1.08;0.98;;;;;;;;;;5053880;28;20028;-45
2023/07/14 08:15:53;;;;;;;1.20;1.10;;;;;;;;;;5054114;28;20382;-45
2023/07/14 08:18:21;;;;;;;1.20;1.02;;;;;;;;;;5053808;28;20043;-45
2023/07/14 08:20:49;;;;;;;1.02;0.93;;;;;;;;;;5053716;28;20032;-45
2023/07/14 08:23:16;;;;;;;1.00;0.90;;;;;;;;;;5053530;28;20120;-45
2023/07/14 08:25:43;;;;;;;0.95;0.85;;;;;;;;;;5053601;28;20537;-45
2023/07/14 08:28:10;;;;;;;0.80;0.80;;;;;;;;;;5053537;28;20056;-45
2023/07/14 08:30:37;;;;;;;1.05;0.95;;;;;;;;;;5053596;28;20481;-45
2023/07/14 08:33:04;;;;;;;0.93;0.80;;;;;;;;;;5053375;28;20536;-47
2023/07/14 08:35:31;;;;;;;0.65;0.65;;;;;;;;;;5053501;28;20467;-45
2023/07/14 08:37:59;;;;;;;1.45;1.10;;;;;;;;;;5053451;28;20113;-45
2023/07/14 08:40:28;;;;;;;1.05;0.85;;;;;;;;;;5053362;28;20032;-46
2023/07/14 08:43:13;;;;;;;1.20;1.10;;;;;;;;;;5053203;28;20052;-45
2023/07/14 08:45:51;;;;;;;1.15;0.90;;;;;;;;;;5053629;28;20032;-46
2023/07/14 08:48:40;;;;;;;1.17;1.05;;;;;;;;;;5052968;28;20044;-47
2023/07/14 08:51:18;;;;;;;1.05;0.88;;;;;;;;;;5053073;28;20025;-45
2023/07/14 08:53:50;;;;;;;0.93;0.82;;;;;;;;;;5051790;28;20040;-45
2023/07/14 08:56:19;;;;;;;0.93;0.85;;;;;;;;;;5053066;28;20106;-45
2023/07/14 08:58:48;;;;;;;0.95;0.80;;;;;;;;;;5053042;28;20107;-45
2023/07/14 09:01:26;;;;;;;0.88;0.82;;;;;;;;;;5052911;28;20100;-45
2023/07/14 09:03:56;;;;;;;0.80;0.80;;;;;;;;;;5052957;28;20033;-45
2023/07/14 09:06:29;;;;;;;0.93;0.77;;;;;;;;;;5052821;28;20035;-45
2023/07/14 09:08:56;;;;;;;0.77;0.75;;;;;;;;;;5052689;28;20036;-46
2023/07/14 09:11:42;;;;;;;1.08;0.88;;;;;;;;;;5052639;28;20033;-47
2023/07/14 09:14:15;;;;;;;1.00;0.90;;;;;;;;;;5052731;28;20029;-45
2023/07/14 09:16:48;;;;;;;0.98;0.88;;;;;;;;;;5052632;28;20053;-45
2023/07/14 09:19:29;;;;;;;1.10;0.90;;;;;;;;;;5052610;28;20035;-46
2023/07/14 09:22:02;;;;;;;1.02;0.90;;;;;;;;;;5052271;28;20029;-45
2023/07/14 09:24:48;;;;;;;0.90;0.80;;;;;;;;;;5052514;28;20375;-47
2023/07/14 09:27:20;;;;;;;0.70;0.70;;;;;;;;;;5052472;28;20505;-45
2023/07/14 09:29:47;;;;;;;;;;;;;;;;;;5052803;28;20036;-45
2023/07/14 09:32:22;;;;;;;0.50;0.50;;;;;;;;;;5052166;28;19908;-45
2023/07/14 09:35:00;;;;;;;0.70;0.70;;;;;;;;;;5052345;28;20681;-45
2023/07/14 09:37:47;;;;;;;1.00;0.80;;;;;;;;;;5052297;28;20112;-45
2023/07/14 09:40:20;;;;;;;0.80;0.80;;;;;;;;;;5052093;28;20017;-47
2023/07/14 09:42:51;;;;;;;0.70;0.68;;;;;;;;;;5052061;28;20103;-45
2023/07/14 09:45:19;;;;;;;0.70;0.70;;;;;;;;;;5052175;28;20078;-45
2023/07/14 09:47:47;;;;;;;0.98;0.88;;;;;;;;;;5051997;28;20025;-45
2023/07/14 09:50:16;;;;;;;0.80;0.80;;;;;;;;;;5052121;28;20049;-48
2023/07/14 09:52:50;;;;;;;0.80;0.70;;;;;;;;;;5051990;28;20032;-45
2023/07/14 09:55:19;;;;;;;1.48;0.77;;;;;;;;;;5051948;28;20032;-45
2023/07/14 09:57:47;;;;;;;0.80;0.80;;;;;;;;;;5051813;28;20096;-48
2023/07/14 10:00:20;;;;;;;0.80;0.70;;;;;;;;;;5051908;28;20115;-45
2023/07/14 10:02:50;;;;;;;0.70;0.70;;;;;;;;;;5051785;28;20390;-45
2023/07/14 10:05:21;;;;;;;0.70;0.70;;;;;;;;;;5033494;28;20036;-45
2023/07/14 10:07:48;;;;;;;0.70;0.70;;;;;;;;;;5051643;28;20036;-47
2023/07/14 10:10:15;;;;;;;0.85;0.80;;;;;;;;;;5051731;28;20102;-45
2023/07/14 10:12:49;;;;;;;0.80;0.75;;;;;;;;;;5051686;28;20124;-45
2023/07/14 10:15:32;;;;;;;0.95;0.70;;;;;;;;;;5051519;28;20036;-45
2023/07/14 10:18:02;;;;;;;0.70;0.70;;;;;;;;;;5051699;28;20150;-45
2023/07/14 10:20:31;;;;;;;0.60;0.60;;;;;;;;;;5051465;28;20039;-45
2023/07/14 10:22:59;;;;;;;0.70;0.60;;;;;;;;;;5051534;28;20118;-46
2023/07/14 10:25:27;;;;;;;0.80;0.70;;;;;;;;;;5051464;28;20102;-45
2023/07/14 10:27:58;;;;;;;0.65;0.65;;;;;;;;;;5051403;28;20475;-44
2023/07/14 10:30:47;;;;;;;0.65;0.65;;;;;;;;;;5051629;28;20386;-47
2023/07/14 10:33:23;;;;;;;0.95;0.80;;;;;;;;;;5051323;28;20048;-47
2023/07/14 10:35:54;;;;;;;0.70;0.60;;;;;;;;;;5051534;28;20021;-45
2023/07/14 10:38:45;;;;;;;0.75;0.70;;;;;;;;;;5051552;28;20029;-45
2023/07/14 10:41:12;;;;;;;0.50;0.50;;;;;;;;;;5046207;28;20072;-45
2023/07/14 10:43:42;;;;;;;0.70;0.63;;;;;;;;;;5051401;28;20104;-45
2023/07/14 10:46:35;;;;;;;0.68;0.68;;;;;;;;;;5051465;28;20382;-45
2023/07/14 10:49:25;;;;;;;0.60;0.60;;;;;;;;;;5046450;28;20044;-45
2023/07/14 10:51:58;;;;;;;0.60;0.60;;;;;;;;;;5045918;28;20116;-45
2023/07/14 10:54:25;;;;;;;1.00;0.70;;;;;;;;;;5051322;28;20040;-45
2023/07/14 10:57:03;;;;;;;0.50;0.50;;;;;;;;;;5051331;28;20040;-45
2023/07/14 10:59:32;;;;;;;0.60;0.60;;;;;;;;;;5051247;28;20028;-45
2023/07/14 11:02:04;;;;;;;0.82;0.68;;;;;;;;;;5051068;28;20037;-45
2023/07/14 11:04:33;;;;;;;0.60;0.60;;;;;;;;;;5051252;28;20037;-45
2023/07/14 11:07:01;;;;;;;0.68;0.50;;;;;;;;;;5051249;28;20049;-45
2023/07/14 11:09:28;;;;;;;0.63;0.60;;;;;;;;;;5051125;28;20053;-45
2023/07/14 11:12:06;;;;;;;0.60;0.60;;;;;;;;;;5051015;28;20017;-46
2023/07/14 11:14:42;;;;;;;0.60;0.60;;;;;;;;;;5051146;28;20083;-45
2023/07/14 11:17:15;;;;;;;0.63;0.50;;;;;;;;;;5052004;28;20063;-46
2023/07/14 11:19:49;;;;;;;0.50;0.50;;;;;;;;;;5055006;28;20406;-46
2023/07/14 11:22:31;;;;;;;0.60;0.60;;;;;;;;;;5054782;28;20053;-45
2023/07/14 11:25:03;;;;;;;0.57;0.57;;;;;;;;;;5054851;28;20037;-46
2023/07/14 11:27:45;;;;;;;0.70;0.60;;;;;;;;;;5054660;28;20029;-45
2023/07/14 11:30:24;;;;;;;0.50;0.50;;;;;;;;;;5054663;28;20044;-45
2023/07/14 11:33:03;;;;;;;0.70;0.63;;;;;;;;;;5054517;28;20542;-47
2023/07/14 11:35:53;;;;;;;0.40;0.40;;;;;;;;;;5054451;28;20045;-45
2023/07/14 11:38:30;;;;;;;0.47;0.47;;;;;;;;;;5049199;28;20098;-45
2023/07/14 11:40:57;;;;;;;0.60;0.55;;;;;;;;;;5054371;28;20422;-45
2023/07/14 11:43:27;;;;;;;0.60;0.60;;;;;;;;;;5054269;28;20387;-45
2023/07/14 11:46:02;;;;;;;0.57;0.57;;;;;;;;;;5054261;28;20037;-46
2023/07/14 11:48:46;;;;;;;0.55;0.45;;;;;;;;;;5054459;28;20108;-45
2023/07/14 11:51:19;;;;;;;0.50;0.50;;;;;;;;;;5054256;28;20032;-45
2023/07/14 11:54:06;;;;;;;0.50;0.50;;;;;;;;;;5054276;28;20052;-45
2023/07/14 11:56:38;;;;;;;0.73;0.65;;;;;;;;;;5054149;28;20028;-44
2023/07/14 11:59:07;;;;;;;0.50;0.50;;;;;;;;;;5054224;28;20033;-45
2023/07/14 12:01:43;;;;;;;0.40;0.40;;;;;;;;;;5053957;28;20029;-46
2023/07/14 12:04:37;;;;;;;0.45;0.45;;;;;;;;;;5053975;28;20029;-45
2023/07/14 12:07:13;;;;;;;0.65;0.50;;;;;;;;;;5052294;28;20041;-45
2023/07/14 12:10:08;;;;;;;0.52;0.43;;;;;;;;;;5053950;28;20029;-46
2023/07/14 12:12:35;;;;;;;0.50;0.45;;;;;;;;;;5038338;28;20543;-46
2023/07/14 12:15:02;;;;;;;0.57;0.50;;;;;;;;;;5053927;28;20021;-46
2023/07/14 12:17:38;;;;;;;0.40;0.40;;;;;;;;;;5053673;28;20033;-46
2023/07/14 12:20:15;;;;;;;0.40;0.40;;;;;;;;;;5053818;28;20031;-46
2023/07/14 12:22:42;;;;;;;0.60;0.50;;;;;;;;;;5053606;28;20037;-45
2023/07/14 12:25:12;;;;;;;0.45;0.45;;;;;;;;;;5053691;28;20025;-45
2023/07/14 12:27:44;;;;;;;0.60;0.60;;;;;;;;;;5053389;28;20052;-46
2023/07/14 12:30:19;;;;;;;0.60;0.60;;;;;;;;;;5053415;28;20039;-45
2023/07/14 12:32:46;;;;;;;0.50;0.50;;;;;;;;;;5053375;28;20068;-45
2023/07/14 12:35:14;;;;;;;0.60;0.52;;;;;;;;;;5053521;28;20037;-45
2023/07/14 12:37:41;;;;;;;0.60;0.50;;;;;;;;;;5053470;28;20422;-45
2023/07/14 12:40:20;;;;;;;0.70;0.50;;;;;;;;;;5053417;28;20443;-45
2023/07/14 12:42:51;;;;;;;0.70;0.68;;;;;;;;;;5053315;28;20094;-45
2023/07/14 12:45:20;;;;;;;0.60;0.50;;;;;;;;;;5053322;28;20051;-45
2023/07/14 12:47:49;;;;;;;0.73;0.63;;;;;;;;;;5053295;28;20021;-45
2023/07/14 12:50:17;;;;;;;0.60;0.50;;;;;;;;;;5053046;28;20052;-45
2023/07/14 12:52:45;;;;;;;0.45;0.40;;;;;;;;;;5052983;28;20044;-45
2023/07/14 12:55:14;;;;;;;0.68;0.60;;;;;;;;;;5053148;28;20031;-45
2023/07/14 12:57:41;;;;;;;0.75;0.70;;;;;;;;;;5052916;28;20029;-45
2023/07/14 13:00:34;;;;;;;0.75;0.75;;;;;;;;;;5053053;28;20021;-45
2023/07/14 13:03:01;;;;;;;;;;;;;;;;;;5051599;28;20045;-45
2023/07/14 13:05:34;;;;;;;0.80;0.80;;;;;;;;;;5052946;28;19909;-45
2023/07/14 13:08:01;;;;;;;1.20;0.95;;;;;;;;;;5052944;28;20041;-47
2023/07/14 13:10:32;;;;;;;0.82;0.77;;;;;;;;;;5052784;28;20029;-45
2023/07/14 13:12:59;;;;;;;0.88;0.80;;;;;;;;;;5052729;28;20036;-45
2023/07/14 13:15:27;;;;;;;1.67;0.90;;;;;;;;;;5052756;28;20025;-46
2023/07/14 13:17:56;;;;;;;1.27;0.90;;;;;;;;;;5052727;28;20486;-46
2023/07/14 13:20:27;;;;;;;1.67;0.80;;;;;;;;;;5052556;28;20056;-47
2023/07/14 13:23:10;;;;;;;1.40;1.00;;;;;;;;;;5052553;28;20477;-45
2023/07/14 13:26:06;;;;;;;1.30;0.75;;;;;;;;;;5052389;28;20461;-45
2023/07/14 13:28:43;;;;;;;2.05;0.82;;;;;;;;;;5015724;28;20120;-45
2023/07/14 13:31:10;;;;;;;1.85;1.00;;;;;;;;;;5052578;28;20064;-45
2023/07/14 13:33:37;;;;;;;1.60;0.90;;;;;;;;;;5052243;28;20128;-46
2023/07/14 13:36:05;;;;;;;1.13;0.90;;;;;;;;;;5052398;28;20112;-45
2023/07/14 13:38:33;;;;;;;0.93;0.80;;;;;;;;;;5052338;28;20124;-45
2023/07/14 13:41:17;;;;;;;1.10;0.90;;;;;;;;;;5051500;28;20025;-45
2023/07/14 13:43:50;;;;;;;0.93;0.82;;;;;;;;;;5052203;28;20107;-45
2023/07/14 13:46:26;;;;;;;0.70;0.70;;;;;;;;;;5052163;28;20037;-45
2023/07/14 13:48:55;;;;;;;1.02;0.93;;;;;;;;;;5052005;28;20037;-45
2023/07/14 13:51:27;;;;;;;0.75;0.70;;;;;;;;;;5052025;28;20033;-46
2023/07/14 13:53:54;;;;;;;1.30;0.90;;;;;;;;;;5052030;28;20433;-45
2023/07/14 13:56:24;;;;;;;1.27;0.77;;;;;;;;;;5052034;28;20032;-45
2023/07/14 13:58:51;;;;;;;0.95;0.80;;;;;;;;;;5051830;28;20033;-45
2023/07/14 14:01:26;;;;;;;0.90;0.73;;;;;;;;;;5051796;28;20474;-47
2023/07/14 14:03:55;;;;;;;0.80;0.70;;;;;;;;;;5051663;28;20040;-45
2023/07/14 14:06:22;;;;;;;2.70;0.85;;;;;;;;;;5051877;28;20041;-45
2023/07/14 14:08:49;;;;;;;1.02;0.90;;;;;;;;;;5051755;28;20494;-45
2023/07/14 14:11:16;;;;;;;1.20;0.80;;;;;;;;;;5051624;28;20067;-45
2023/07/14 14:13:43;;;;;;;0.85;0.80;;;;;;;;;;5051720;28;20051;-45
2023/07/14 14:16:13;;;;;;;1.50;0.95;;;;;;;;;;5051725;28;20463;-45
2023/07/14 14:18:41;;;;;;;1.65;0.77;;;;;;;;;;5051801;28;20367;-45
2023/07/14 14:21:09;;;;;;;0.60;0.60;;;;;;;;;;5051608;28;20124;-45
2023/07/14 14:23:36;;;;;;;1.77;0.63;;;;;;;;;;5051605;28;20095;-45
2023/07/14 14:26:03;;;;;;;1.77;0.80;;;;;;;;;;5051649;28;20105;-45
2023/07/14 14:28:29;;;;;;;1.05;0.70;;;;;;;;;;5051524;28;20033;-45
2023/07/14 14:30:58;;;;;;;1.08;0.70;;;;;;;;;;5051460;28;20033;-45
2023/07/14 14:33:26;;;;;;;0.77;0.70;;;;;;;;;;5051389;28;20048;-45
2023/07/14 14:35:54;;;;;;;0.70;0.60;;;;;;;;;;5051516;28;20029;-46
2023/07/14 14:38:27;;;;;;;0.75;0.73;;;;;;;;;;5051373;28;20455;-45
2023/07/14 14:40:55;;;;;;;1.10;0.68;;;;;;;;;;5051190;28;20423;-47
2023/07/14 14:43:28;;;;;;;1.95;0.60;;;;;;;;;;5051439;28;20371;-45
2023/07/14 14:45:54;;;;;;;;;;;;;;;;;;5051837;28;20025;-45
2023/07/14 14:48:28;;;;;;;0.80;0.80;;;;;;;;;;5051630;28;19936;-45
2023/07/14 14:50:56;;;;;;;0.95;0.73;;;;;;;;;;5051776;28;20068;-45
2023/07/14 14:53:24;;;;;;;1.95;0.60;;;;;;;;;;5055413;28;20486;-45
2023/07/14 14:55:53;;;;;;;0.55;0.50;;;;;;;;;;5055310;28;20037;-45
2023/07/14 14:58:24;;;;;;;0.85;0.65;;;;;;;;;;5055345;28;20086;-45
2023/07/14 15:00:55;;;;;;;0.70;0.60;;;;;;;;;;5055238;28;20048;-45